createdAt,value
2023-02-08T07:08:03.848Z,16.00
2023-02-08T07:10:32.436Z,18.00
2023-02-08T07:13:02.408Z,18.00
2023-02-08T07:15:31.158Z,19.90
2023-02-08T07:18:00.027Z,15.10
2023-02-08T07:20:29.133Z,19.10
2023-02-08T07:22:57.993Z,23.40
2023-02-08T07:25:26.273Z,19.00
2023-02-08T07:27:55.077Z,19.50
2023-02-08T07:30:23.646Z,15.30
2023-02-08T07:32:52.548Z,14.90
2023-02-08T07:35:20.761Z,19.10
2023-02-08T07:37:48.901Z,15.40
2023-02-08T07:40:17.664Z,17.00
2023-02-08T07:42:46.264Z,17.10
2023-02-08T07:45:23.395Z,15.50
2023-02-08T07:47:51.921Z,14.80
2023-02-08T07:50:20.272Z,13.80
2023-02-08T07:52:48.544Z,14.20
2023-02-08T07:55:17.325Z,16.40
2023-02-08T07:57:47.889Z,17.40
2023-02-08T08:00:17.662Z,14.20
2023-02-08T08:02:46.038Z,14.20
2023-02-08T08:05:14.320Z,12.30
2023-02-08T08:07:44.835Z,12.00
2023-02-08T08:10:13.440Z,12.60
2023-02-08T08:12:41.605Z,12.80
2023-02-08T08:15:10.318Z,13.80
2023-02-08T08:17:42.175Z,12.90
2023-02-08T08:20:11.183Z,11.40
2023-02-08T08:22:39.624Z,12.10
2023-02-08T08:25:07.952Z,11.40
2023-02-08T08:27:36.420Z,12.00
2023-02-08T08:30:12.939Z,10.50
2023-02-08T08:32:42.096Z,13.40
2023-02-08T08:35:10.693Z,12.20
2023-02-08T08:37:39.064Z,11.50
2023-02-08T08:40:08.426Z,11.00
2023-02-08T08:42:39.929Z,12.50
2023-02-08T08:45:08.859Z,13.00
2023-02-08T08:47:37.139Z,13.30
2023-02-08T08:50:06.709Z,14.30
2023-02-08T08:52:34.988Z,12.90
2023-02-08T08:55:04.327Z,14.00
2023-02-08T08:57:32.501Z,12.60
2023-02-08T09:00:02.968Z,12.70
2023-02-08T09:02:31.288Z,11.90
2023-02-08T09:05:05.554Z,11.50
2023-02-08T09:07:35.048Z,13.20
2023-02-08T09:10:04.108Z,11.40
2023-02-08T09:12:33.260Z,12.00
2023-02-08T09:15:01.588Z,11.30
2023-02-08T09:17:30.080Z,9.80
2023-02-08T09:19:58.559Z,11.10
2023-02-08T09:22:26.943Z,11.50
2023-02-08T09:24:55.402Z,11.90
2023-02-08T09:27:23.567Z,12.30
2023-02-08T09:29:52.458Z,11.20
2023-02-08T09:32:21.506Z,10.90
2023-02-08T09:34:49.901Z,10.40
2023-02-08T09:37:18.332Z,10.20
2023-02-08T09:39:47.252Z,11.60
2023-02-08T09:42:24.663Z,10.60
2023-02-08T09:45:02.516Z,10.80
2023-02-08T09:47:30.842Z,10.60
2023-02-08T09:50:06.763Z,10.20
2023-02-08T09:52:38.452Z,8.70
2023-02-08T09:55:20.972Z,10.10
2023-02-08T09:57:49.110Z,12.10
2023-02-08T10:00:21.002Z,10.90
2023-02-08T10:02:50.127Z,9.30
2023-02-08T10:05:21.417Z,11.40
2023-02-08T10:07:49.757Z,10.20
2023-02-08T10:10:41.451Z,9.20
2023-02-08T10:13:41.149Z,10.80
2023-02-08T10:16:13.651Z,8.90
2023-02-08T10:19:05.027Z,9.90
2023-02-08T10:21:53.795Z,12.10
2023-02-08T10:24:26.268Z,10.40
2023-02-08T10:27:17.873Z,11.30
2023-02-08T10:30:31.315Z,9.80
2023-02-08T10:33:01.569Z,10.90
2023-02-08T10:35:37.348Z,11.00
2023-02-08T10:38:23.392Z,10.30
2023-02-08T10:40:55.930Z,9.90
2023-02-08T10:43:33.217Z,11.10
2023-02-08T10:46:20.465Z,12.70
2023-02-08T10:51:27.195Z,10.80
2023-02-08T10:53:55.487Z,10.00
2023-02-08T10:56:45.347Z,10.80
2023-02-08T10:59:17.045Z,10.80
2023-02-08T11:01:45.507Z,11.10
2023-02-08T11:04:14.054Z,12.20
2023-02-08T11:06:44.182Z,12.50
2023-02-08T11:09:26.153Z,12.20
2023-02-08T11:11:55.274Z,11.40
2023-02-08T11:14:46.196Z,13.00
2023-02-08T11:17:35.773Z,12.20
2023-02-08T11:20:04.331Z,11.70
2023-02-08T11:22:34.596Z,11.60
2023-02-08T11:25:06.174Z,11.50
2023-02-08T11:27:36.627Z,9.80
2023-02-08T11:30:14.079Z,11.50
2023-02-08T11:32:43.342Z,10.60
2023-02-08T11:35:20.692Z,11.10
2023-02-08T11:37:50.476Z,12.10
2023-02-08T11:40:24.998Z,11.10
2023-02-08T11:42:54.400Z,10.30
2023-02-08T11:45:30.459Z,13.00
2023-02-08T11:47:58.944Z,11.80
2023-02-08T11:50:39.918Z,11.90
2023-02-08T11:53:23.448Z,11.70
2023-02-08T11:56:22.644Z,11.40
2023-02-08T11:59:09.522Z,12.10
2023-02-08T12:01:39.722Z,11.70
2023-02-08T12:04:11.163Z,11.50
2023-02-08T12:07:12.355Z,12.70
2023-02-08T12:09:58.534Z,11.10
2023-02-08T12:12:49.327Z,9.70
2023-02-08T12:15:23.532Z,11.60
2023-02-08T12:18:26.110Z,11.20
2023-02-08T12:21:28.680Z,11.20
2023-02-08T12:24:06.780Z,10.80
2023-02-08T12:26:55.115Z,9.40
2023-02-08T12:32:06.824Z,9.40
2023-02-08T12:34:56.489Z,9.50
2023-02-08T12:37:44.010Z,10.30
2023-02-08T12:40:44.054Z,10.90
2023-02-08T12:43:54.567Z,9.70
2023-02-08T12:46:26.055Z,10.50
2023-02-08T12:49:03.605Z,11.30
2023-02-08T12:51:37.726Z,12.40
2023-02-08T12:54:26.171Z,11.70
2023-02-08T12:57:02.090Z,9.60
2023-02-08T12:59:59.512Z,11.00
2023-02-08T13:02:57.477Z,9.40
2023-02-08T13:05:30.294Z,9.90
2023-02-08T13:08:15.884Z,10.50
2023-02-08T13:10:46.869Z,8.70
2023-02-08T13:13:18.196Z,9.80
2023-02-08T13:15:54.147Z,9.10
2023-02-08T13:18:25.098Z,12.20
2023-02-08T13:21:08.612Z,11.20
2023-02-08T13:23:50.582Z,10.90
2023-02-08T13:26:23.157Z,10.20
2023-02-08T13:28:56.499Z,9.60
2023-02-08T13:31:28.597Z,9.70
2023-02-08T13:34:08.439Z,12.10
2023-02-08T13:36:40.195Z,10.40
2023-02-08T13:39:22.534Z,10.30
2023-02-08T13:41:52.783Z,9.10
2023-02-08T13:44:26.658Z,10.30
2023-02-08T13:46:54.916Z,9.40
2023-02-08T13:49:49.397Z,11.20
2023-02-08T13:52:46.395Z,9.30
2023-02-08T13:55:32.184Z,10.60
2023-02-08T13:58:01.182Z,11.30
2023-02-08T14:00:37.350Z,8.90
2023-02-08T14:03:14.995Z,10.50
2023-02-08T14:06:15.579Z,10.70
2023-02-08T14:09:23.733Z,13.40
2023-02-08T14:11:57.280Z,12.10
2023-02-08T14:14:26.821Z,11.60
2023-02-08T14:17:04.701Z,12.00
2023-02-08T14:19:41.124Z,11.90
2023-02-08T14:22:12.719Z,10.50
2023-02-08T14:24:59.299Z,12.20
2023-02-08T14:27:39.466Z,12.50
2023-02-08T14:30:16.752Z,9.20
2023-02-08T14:33:07.631Z,10.40
2023-02-08T14:35:37.869Z,10.80
2023-02-08T14:38:24.558Z,11.60
2023-02-08T14:40:59.593Z,11.20
2023-02-08T14:43:41.277Z,11.50
2023-02-08T14:46:38.077Z,10.70
2023-02-08T14:49:17.161Z,10.70
2023-02-08T14:51:51.547Z,10.10
2023-02-08T14:54:34.134Z,11.80
2023-02-08T14:57:12.035Z,10.40
2023-02-08T14:59:40.858Z,10.30
2023-02-08T15:02:20.196Z,10.50
2023-02-08T15:04:49.506Z,11.70
2023-02-08T15:07:35.785Z,12.90
2023-02-08T15:10:05.575Z,13.80
2023-02-08T15:12:35.857Z,13.50
